Terminal Aerodrome Forecast
Issued by NWS Brownsville, TX

Home | Current Version | Previous Version | Text Only | Print | Product List | Glossary On
Versions: 1 2 3 4 5 6 7 8 9 10 11 12 13 14 15 16 17 18 19 20 21 22 23
000
FTUS44 KBRO 240540
TAFBRO
TAF
KBRO 240540Z 2406/2506 14014KT P6SM -RA VCTS SCT015 BKN025CB
      TEMPO 2406/2408 VRB15G25KT 1SM +TSRA BR BKN012 BKN020CB
     FM241300 16013KT P6SM VCSH BKN025 BKN050 OVC150
     FM241500 18018G26KT P6SM SCT040
     FM250200 15015KT P6SM FEW030 SCT250=

USA.gov is the U.S. government's official web portal to all federal, state and local government web resources and services.